Time;durP1;ratioP1;P1;durP2;ratioP2;P2;SDS_P1;SDS_P2;PMS_P1;PMS_P2;Temp;Humidity;BMP_temperature;BMP_pressure;BME280_temperature;BME280_humidity;BME280_pressure;Samples;Min_cycle;Max_cycle;Signal;HPM_P1;HPM_P2
2023/08/19 00:01:39;;;;;;;39.35;34.42;;;;;;;;;;5003152;28;20409;-71
2023/08/19 00:04:05;;;;;;;40.53;34.97;;;;;;;;;;5017099;28;20038;-71
2023/08/19 00:06:34;;;;;;;39.85;35.53;;;;;;;;;;5003774;28;20063;-71
2023/08/19 00:09:03;;;;;;;40.08;35.85;;;;;;;;;;5024482;28;20137;-71
2023/08/19 00:11:29;;;;;;;40.78;35.88;;;;;;;;;;5019320;28;20718;-71
2023/08/19 00:13:56;;;;;;;37.53;33.50;;;;;;;;;;5025515;28;20042;-71
2023/08/19 00:16:22;;;;;;;40.30;35.92;;;;;;;;;;5012702;28;20080;-71
2023/08/19 00:18:48;;;;;;;40.00;35.83;;;;;;;;;;4999876;28;20041;-71
2023/08/19 00:21:14;;;;;;;41.70;36.28;;;;;;;;;;5007625;28;20480;-71
2023/08/19 00:23:40;;;;;;;42.25;36.40;;;;;;;;;;4999704;28;20046;-71
2023/08/19 00:26:06;;;;;;;42.60;36.70;;;;;;;;;;5022957;28;20053;-71
2023/08/19 00:28:32;;;;;;;43.58;37.22;;;;;;;;;;5002013;28;20041;-71
2023/08/19 00:30:58;;;;;;;41.67;37.03;;;;;;;;;;5000200;28;20463;-71
2023/08/19 00:33:25;;;;;;;43.00;36.70;;;;;;;;;;5005880;28;20485;-71
2023/08/19 00:35:51;;;;;;;44.33;37.92;;;;;;;;;;5009829;28;20054;-71
2023/08/19 00:38:17;;;;;;;44.17;37.63;;;;;;;;;;5013898;28;20094;-71
2023/08/19 00:40:44;;;;;;;43.00;37.10;;;;;;;;;;5011362;28;20050;-71
2023/08/19 00:43:10;;;;;;;40.60;35.00;;;;;;;;;;5009702;28;20496;-71
2023/08/19 00:45:43;;;;;;;43.47;36.95;;;;;;;;;;5021786;28;20086;-71
2023/08/19 00:48:09;;;;;;;41.00;36.25;;;;;;;;;;5026515;28;20049;-71
2023/08/19 00:50:35;;;;;;;40.97;35.72;;;;;;;;;;5004587;28;20187;-71
2023/08/19 00:53:02;;;;;;;42.38;37.17;;;;;;;;;;5011682;28;20049;-71
2023/08/19 00:55:28;;;;;;;41.47;37.00;;;;;;;;;;5030461;28;20050;-71
2023/08/19 00:57:54;;;;;;;39.85;35.70;;;;;;;;;;5004295;28;20046;-71
2023/08/19 01:00:20;;;;;;;42.88;36.50;;;;;;;;;;5011054;28;20048;-71
2023/08/19 01:02:46;;;;;;;41.80;36.60;;;;;;;;;;5015357;28;20133;-71
2023/08/19 01:05:12;;;;;;;42.60;37.20;;;;;;;;;;5005106;28;20050;-71
2023/08/19 01:07:43;;;;;;;41.83;37.20;;;;;;;;;;5008232;28;20057;-71
2023/08/19 01:10:13;;;;;;;40.13;35.92;;;;;;;;;;4995445;28;20060;-71
2023/08/19 01:12:43;;;;;;;42.53;36.70;;;;;;;;;;4989065;28;20092;-71
2023/08/19 01:15:18;;;;;;;45.15;38.03;;;;;;;;;;5008683;28;20137;-71
2023/08/19 01:17:45;;;;;;;45.45;37.55;;;;;;;;;;5000890;28;20471;-71
2023/08/19 01:20:12;;;;;;;42.92;36.47;;;;;;;;;;5006604;28;20046;-71
2023/08/19 01:22:49;;;;;;;43.15;38.17;;;;;;;;;;4998514;28;20053;-71
2023/08/19 01:25:16;;;;;;;44.95;38.55;;;;;;;;;;5003468;28;20052;-71
2023/08/19 01:27:42;;;;;;;45.13;36.92;;;;;;;;;;4998462;28;20042;-71
2023/08/19 01:30:08;;;;;;;46.40;38.95;;;;;;;;;;5001299;28;20046;-71
2023/08/19 01:32:34;;;;;;;44.90;37.08;;;;;;;;;;4999398;28;20082;-71
2023/08/19 01:35:01;;;;;;;44.35;38.95;;;;;;;;;;4999502;28;20065;-71
2023/08/19 01:37:30;;;;;;;43.22;38.55;;;;;;;;;;4993851;28;20058;-71
2023/08/19 01:39:57;;;;;;;42.58;37.80;;;;;;;;;;4992710;28;20465;-71
2023/08/19 01:42:24;;;;;;;43.25;38.05;;;;;;;;;;5007493;28;20081;-71
2023/08/19 01:44:51;;;;;;;43.80;37.58;;;;;;;;;;4996501;28;20057;-71
2023/08/19 01:47:17;;;;;;;45.17;38.10;;;;;;;;;;4992429;28;20062;-72
2023/08/19 01:49:43;;;;;;;43.58;38.83;;;;;;;;;;5006770;28;20078;-71
2023/08/19 01:52:10;;;;;;;44.38;38.40;;;;;;;;;;5007303;28;20053;-71
2023/08/19 01:54:36;;;;;;;42.85;38.03;;;;;;;;;;5002644;28;20042;-72
2023/08/19 01:57:03;;;;;;;42.47;37.85;;;;;;;;;;5001783;28;20045;-71
2023/08/19 01:59:29;;;;;;;44.00;38.67;;;;;;;;;;5000178;28;20137;-71
2023/08/19 02:01:55;;;;;;;43.80;38.78;;;;;;;;;;5001450;28;20080;-71
2023/08/19 02:04:21;;;;;;;45.60;37.45;;;;;;;;;;5007973;28;20048;-71
2023/08/19 02:06:47;;;;;;;41.22;36.72;;;;;;;;;;5018013;28;20052;-71
2023/08/19 02:09:13;;;;;;;41.05;36.30;;;;;;;;;;5025207;28;20110;-71
2023/08/19 02:11:39;;;;;;;42.75;37.95;;;;;;;;;;5005899;28;20473;-71
2023/08/19 02:14:05;;;;;;;43.05;38.42;;;;;;;;;;4994942;28;20038;-71
2023/08/19 02:16:31;;;;;;;42.50;37.95;;;;;;;;;;5016083;28;20136;-71
2023/08/19 02:19:00;;;;;;;41.05;36.75;;;;;;;;;;5009674;28;20120;-71
2023/08/19 02:21:27;;;;;;;42.08;37.20;;;;;;;;;;5023096;28;20049;-71
2023/08/19 02:23:53;;;;;;;41.90;37.35;;;;;;;;;;5013832;28;20513;-71
2023/08/19 02:26:19;;;;;;;43.53;37.72;;;;;;;;;;5027345;28;20397;-70
2023/08/19 02:28:45;;;;;;;47.63;39.08;;;;;;;;;;5016864;28;20046;-71
2023/08/19 02:31:12;;;;;;;45.22;38.78;;;;;;;;;;5022018;28;20445;-71
2023/08/19 02:33:40;;;;;;;42.80;37.50;;;;;;;;;;5002154;28;20038;-71
2023/08/19 02:36:06;;;;;;;43.53;38.50;;;;;;;;;;5017118;28;20863;-71
2023/08/19 02:38:32;;;;;;;44.38;37.97;;;;;;;;;;5008894;28;20056;-71
2023/08/19 02:40:58;;;;;;;41.30;36.80;;;;;;;;;;5006681;28;20136;-71
2023/08/19 02:43:24;;;;;;;43.53;38.08;;;;;;;;;;4994870;28;20237;-71
2023/08/19 02:45:50;;;;;;;42.13;37.53;;;;;;;;;;5018933;28;20392;-71
2023/08/19 02:48:16;;;;;;;43.72;37.40;;;;;;;;;;4992817;28;20136;-71
2023/08/19 02:50:43;;;;;;;42.25;37.72;;;;;;;;;;5014780;28;20053;-71
2023/08/19 02:53:09;;;;;;;43.90;38.80;;;;;;;;;;5004828;28;20050;-71
2023/08/19 02:55:39;;;;;;;44.03;37.75;;;;;;;;;;5001919;28;20414;-71
2023/08/19 02:58:05;;;;;;;43.53;36.60;;;;;;;;;;5004618;28;20045;-71
2023/08/19 03:00:35;;;;;;;40.95;36.47;;;;;;;;;;5000288;28;20045;-71
2023/08/19 03:03:01;;;;;;;39.92;35.53;;;;;;;;;;5008036;28;20137;-71
2023/08/19 03:05:27;;;;;;;42.70;35.92;;;;;;;;;;5014264;28;20543;-71
2023/08/19 03:07:53;;;;;;;41.05;36.40;;;;;;;;;;5007520;28;20080;-71
2023/08/19 03:10:19;;;;;;;43.00;35.80;;;;;;;;;;5015874;28;20132;-71
2023/08/19 03:12:45;;;;;;;43.63;36.00;;;;;;;;;;5017297;28;20042;-71
2023/08/19 03:15:11;;;;;;;41.97;35.67;;;;;;;;;;5016078;28;20095;-71
2023/08/19 03:17:37;;;;;;;41.75;35.78;;;;;;;;;;4995381;28;20050;-71
2023/08/19 03:20:05;;;;;;;39.45;35.17;;;;;;;;;;5020516;28;20033;-71
2023/08/19 03:22:32;;;;;;;39.67;35.47;;;;;;;;;;5029935;28;20050;-71
2023/08/19 03:24:58;;;;;;;42.00;36.00;;;;;;;;;;5020360;28;20049;-71
2023/08/19 03:27:24;;;;;;;42.60;37.38;;;;;;;;;;5001458;28;20049;-71
2023/08/19 03:29:50;;;;;;;38.45;34.20;;;;;;;;;;4999343;28;20417;-71
2023/08/19 03:32:16;;;;;;;40.53;35.38;;;;;;;;;;4998082;28;20049;-71
2023/08/19 03:34:42;;;;;;;40.75;34.75;;;;;;;;;;5030054;28;20056;-71
2023/08/19 03:37:08;;;;;;;39.33;34.90;;;;;;;;;;4999169;28;20050;-71
2023/08/19 03:39:34;;;;;;;38.13;33.50;;;;;;;;;;4995110;28;20049;-71
2023/08/19 03:42:00;;;;;;;39.17;34.95;;;;;;;;;;5013838;28;20416;-71
2023/08/19 03:44:26;;;;;;;39.28;34.45;;;;;;;;;;5011131;28;20052;-71
2023/08/19 03:46:52;;;;;;;38.95;34.60;;;;;;;;;;5014863;28;20041;-71
2023/08/19 03:49:19;;;;;;;38.13;34.13;;;;;;;;;;5025362;28;20090;-71
2023/08/19 03:51:45;;;;;;;35.92;32.08;;;;;;;;;;5014795;28;20058;-71
2023/08/19 03:54:11;;;;;;;40.13;33.40;;;;;;;;;;5015926;28;20431;-71
2023/08/19 03:56:37;;;;;;;37.88;33.80;;;;;;;;;;5008462;28;20045;-71
2023/08/19 03:59:03;;;;;;;37.83;33.05;;;;;;;;;;5017008;28;20128;-71
2023/08/19 04:01:29;;;;;;;36.92;33.05;;;;;;;;;;5011066;28;20061;-71
2023/08/19 04:03:55;;;;;;;38.47;32.30;;;;;;;;;;5029965;28;20045;-71
2023/08/19 04:06:21;;;;;;;39.25;34.08;;;;;;;;;;5010191;28;20053;-71
2023/08/19 04:08:47;;;;;;;36.92;32.92;;;;;;;;;;5003356;28;20042;-71
2023/08/19 04:11:13;;;;;;;36.15;32.42;;;;;;;;;;5019803;28;20049;-71
2023/08/19 04:13:39;;;;;;;36.88;33.00;;;;;;;;;;5028892;28;20087;-71
2023/08/19 04:16:06;;;;;;;37.17;32.20;;;;;;;;;;4994215;28;20050;-71
2023/08/19 04:18:33;;;;;;;36.22;31.63;;;;;;;;;;5011253;28;20050;-71
2023/08/19 04:21:02;;;;;;;37.88;32.70;;;;;;;;;;5024690;28;20041;-70
2023/08/19 04:23:28;;;;;;;36.67;31.23;;;;;;;;;;5017152;28;20570;-70
2023/08/19 04:25:57;;;;;;;38.03;33.35;;;;;;;;;;5018737;28;20090;-71
2023/08/19 04:28:23;;;;;;;36.47;32.55;;;;;;;;;;5014298;28;20050;-71
2023/08/19 04:30:49;;;;;;;35.70;32.00;;;;;;;;;;5014147;28;20044;-70
2023/08/19 04:33:15;;;;;;;36.00;32.20;;;;;;;;;;5014525;28;20405;-70
2023/08/19 04:35:42;;;;;;;37.90;33.92;;;;;;;;;;5010704;28;20049;-71
2023/08/19 04:38:08;;;;;;;35.85;32.05;;;;;;;;;;5006620;28;20092;-71
2023/08/19 04:40:34;;;;;;;35.45;31.13;;;;;;;;;;5011423;28;20045;-71
2023/08/19 04:43:00;;;;;;;35.70;31.85;;;;;;;;;;5026535;28;20041;-70
2023/08/19 04:45:27;;;;;;;35.63;31.98;;;;;;;;;;5021636;28;20044;-71
2023/08/19 04:47:53;;;;;;;35.83;31.77;;;;;;;;;;5001031;28;20552;-71
2023/08/19 04:50:21;;;;;;;34.20;30.70;;;;;;;;;;4998089;28;20081;-70
2023/08/19 04:52:47;;;;;;;34.95;31.17;;;;;;;;;;5018881;28;20406;-71
2023/08/19 04:55:14;;;;;;;33.88;30.10;;;;;;;;;;5012548;28;20038;-71
2023/08/19 04:57:42;;;;;;;35.25;31.10;;;;;;;;;;5020335;28;20546;-71
2023/08/19 05:00:12;;;;;;;35.53;31.67;;;;;;;;;;5017210;28;20033;-71
2023/08/19 05:02:38;;;;;;;34.50;30.30;;;;;;;;;;5013717;28;20049;-71
2023/08/19 05:05:05;;;;;;;35.72;31.95;;;;;;;;;;5027692;28;20132;-71
2023/08/19 05:07:31;;;;;;;35.35;31.58;;;;;;;;;;5014963;28;20057;-71
2023/08/19 05:09:57;;;;;;;34.03;30.50;;;;;;;;;;5009573;28;20075;-71
2023/08/19 05:12:23;;;;;;;33.10;29.77;;;;;;;;;;5015688;28;20042;-71
2023/08/19 05:14:49;;;;;;;36.33;32.60;;;;;;;;;;5016413;28;20478;-70
2023/08/19 05:17:15;;;;;;;36.15;31.40;;;;;;;;;;5026430;28;20509;-71
2023/08/19 05:19:41;;;;;;;35.40;31.27;;;;;;;;;;5012474;28;20050;-71
2023/08/19 05:22:07;;;;;;;36.15;31.10;;;;;;;;;;4991918;28;20046;-71
2023/08/19 05:24:33;;;;;;;35.00;30.75;;;;;;;;;;5009600;28;20462;-72
2023/08/19 05:27:00;;;;;;;33.50;30.00;;;;;;;;;;5008324;28;20056;-71
2023/08/19 05:29:26;;;;;;;34.65;31.05;;;;;;;;;;5030330;28;20132;-71
2023/08/19 05:31:52;;;;;;;36.30;31.13;;;;;;;;;;5009058;28;20048;-72
2023/08/19 05:34:18;;;;;;;35.10;31.42;;;;;;;;;;5022321;28;20045;-71
2023/08/19 05:36:44;;;;;;;35.47;31.65;;;;;;;;;;5009778;28;20072;-71
2023/08/19 05:39:10;;;;;;;38.33;30.98;;;;;;;;;;5002775;28;20400;-72
2023/08/19 05:41:37;;;;;;;33.78;30.15;;;;;;;;;;5011961;28;20066;-72
2023/08/19 05:44:04;;;;;;;36.78;30.77;;;;;;;;;;5012250;28;20499;-71
2023/08/19 05:46:30;;;;;;;35.20;30.83;;;;;;;;;;5029939;28;20185;-71
2023/08/19 05:48:56;;;;;;;34.47;30.23;;;;;;;;;;5010147;28;20502;-71
2023/08/19 05:51:22;;;;;;;33.30;29.73;;;;;;;;;;5029111;28;20070;-71
2023/08/19 05:53:48;;;;;;;35.70;30.48;;;;;;;;;;5011844;28;20124;-72
2023/08/19 05:56:14;;;;;;;33.10;29.73;;;;;;;;;;5029699;28;20471;-71
2023/08/19 05:58:40;;;;;;;33.63;29.98;;;;;;;;;;5013708;28;20056;-72
2023/08/19 06:01:07;;;;;;;33.63;30.15;;;;;;;;;;5009779;28;20482;-71
2023/08/19 06:03:33;;;;;;;31.63;28.27;;;;;;;;;;4994679;28;20397;-72
2023/08/19 06:06:05;;;;;;;35.75;29.63;;;;;;;;;;5027543;28;20050;-71
2023/08/19 06:08:32;;;;;;;33.25;29.85;;;;;;;;;;5011629;28;20053;-71
2023/08/19 06:11:00;;;;;;;33.90;29.08;;;;;;;;;;5025617;28;20102;-71
2023/08/19 06:13:26;;;;;;;33.83;29.98;;;;;;;;;;5010912;28;20518;-71
2023/08/19 06:15:52;;;;;;;33.17;29.60;;;;;;;;;;5029115;28;20045;-71
2023/08/19 06:18:18;;;;;;;32.78;29.40;;;;;;;;;;5028328;28;20075;-71
2023/08/19 06:20:44;;;;;;;32.95;29.45;;;;;;;;;;5027442;28;20528;-71
2023/08/19 06:23:10;;;;;;;32.47;28.80;;;;;;;;;;5029128;28;20432;-71
2023/08/19 06:25:36;;;;;;;31.67;28.00;;;;;;;;;;5010876;28;20064;-71
2023/08/19 06:28:02;;;;;;;32.35;28.40;;;;;;;;;;5008879;28;20034;-72
2023/08/19 06:30:28;;;;;;;31.20;28.10;;;;;;;;;;5009582;28;20114;-71
2023/08/19 06:32:55;;;;;;;31.52;28.13;;;;;;;;;;5001938;28;20370;-71
2023/08/19 06:35:21;;;;;;;30.20;26.50;;;;;;;;;;5009776;28;20057;-71
2023/08/19 06:37:50;;;;;;;30.33;27.23;;;;;;;;;;5010617;28;20132;-71
2023/08/19 06:40:19;;;;;;;29.40;26.15;;;;;;;;;;5027924;28;20034;-71
2023/08/19 06:42:45;;;;;;;31.13;27.75;;;;;;;;;;5011138;28;20053;-71
2023/08/19 06:45:12;;;;;;;28.77;25.80;;;;;;;;;;5011699;28;20480;-71
2023/08/19 06:47:39;;;;;;;30.02;26.90;;;;;;;;;;5028156;28;20049;-72
2023/08/19 06:50:05;;;;;;;29.25;26.25;;;;;;;;;;5031308;28;20124;-72
2023/08/19 06:52:31;;;;;;;30.48;27.05;;;;;;;;;;5031387;28;20033;-71
2023/08/19 06:54:57;;;;;;;31.23;26.55;;;;;;;;;;5031593;28;20099;-72
2023/08/19 06:57:30;;;;;;;29.65;26.52;;;;;;;;;;5020696;28;20046;-71
2023/08/19 07:00:01;;;;;;;30.60;27.38;;;;;;;;;;5012116;28;20038;-71
2023/08/19 07:02:28;;;;;;;33.88;28.25;;;;;;;;;;5012220;28;20052;-72
2023/08/19 07:04:59;;;;;;;31.10;27.80;;;;;;;;;;5002398;28;20045;-72
2023/08/19 07:07:26;;;;;;;30.52;27.52;;;;;;;;;;5032180;28;20061;-72
2023/08/19 07:09:52;;;;;;;31.77;28.13;;;;;;;;;;5029604;28;20049;-72
2023/08/19 07:12:19;;;;;;;31.50;28.02;;;;;;;;;;5032183;28;20074;-72
2023/08/19 07:14:46;;;;;;;29.52;26.52;;;;;;;;;;5031711;28;20057;-71
2023/08/19 07:17:13;;;;;;;29.92;26.73;;;;;;;;;;5030040;28;20045;-72
2023/08/19 07:19:40;;;;;;;29.38;26.45;;;;;;;;;;5008408;28;20115;-72
2023/08/19 07:22:06;;;;;;;29.25;26.25;;;;;;;;;;5031687;28;20404;-71
2023/08/19 07:24:32;;;;;;;29.27;26.27;;;;;;;;;;4998357;28;20034;-71
2023/08/19 07:27:03;;;;;;;28.00;25.10;;;;;;;;;;5028006;28;20489;-71
2023/08/19 07:29:30;;;;;;;30.10;26.45;;;;;;;;;;5012357;28;20042;-71
2023/08/19 07:31:57;;;;;;;29.48;26.33;;;;;;;;;;5008398;28;20053;-71
2023/08/19 07:34:23;;;;;;;27.85;24.95;;;;;;;;;;5029768;28;20065;-71
2023/08/19 07:36:49;;;;;;;27.95;25.08;;;;;;;;;;5009893;28;20411;-71
2023/08/19 07:39:15;;;;;;;28.83;25.80;;;;;;;;;;5031114;28;20128;-71
2023/08/19 07:41:41;;;;;;;30.52;25.33;;;;;;;;;;5013003;28;20080;-71
2023/08/19 07:44:07;;;;;;;28.20;24.95;;;;;;;;;;5013065;28;20041;-71
2023/08/19 07:46:34;;;;;;;26.73;24.08;;;;;;;;;;5013825;28;20050;-72
2023/08/19 07:49:00;;;;;;;30.58;24.52;;;;;;;;;;4998992;28;20401;-71
2023/08/19 07:51:26;;;;;;;26.85;24.15;;;;;;;;;;5011236;28;20042;-71
2023/08/19 07:53:52;;;;;;;26.73;24.05;;;;;;;;;;5011869;28;20238;-71
2023/08/19 07:56:19;;;;;;;26.98;24.17;;;;;;;;;;4999310;28;20098;-71
2023/08/19 07:58:45;;;;;;;27.55;24.75;;;;;;;;;;5029160;28;20080;-72
2023/08/19 08:01:11;;;;;;;26.75;23.95;;;;;;;;;;5031459;28;20041;-71
2023/08/19 08:03:40;;;;;;;28.08;25.08;;;;;;;;;;5013650;28;20500;-71
2023/08/19 08:06:06;;;;;;;28.08;25.25;;;;;;;;;;5011383;28;20061;-71
2023/08/19 08:08:32;;;;;;;27.80;25.02;;;;;;;;;;4994269;28;20153;-71
2023/08/19 08:10:59;;;;;;;27.15;23.88;;;;;;;;;;5018985;28;20077;-71
2023/08/19 08:13:26;;;;;;;27.52;24.52;;;;;;;;;;5022335;28;20049;-71
2023/08/19 08:15:52;;;;;;;27.70;24.77;;;;;;;;;;5031003;28;20045;-71
2023/08/19 08:18:18;;;;;;;27.40;24.35;;;;;;;;;;5031229;28;20048;-71
2023/08/19 08:20:44;;;;;;;26.33;23.50;;;;;;;;;;5029787;28;20049;-72
2023/08/19 08:23:10;;;;;;;28.52;25.10;;;;;;;;;;5030223;28;20452;-72
2023/08/19 08:25:37;;;;;;;28.50;25.42;;;;;;;;;;5031294;28;20045;-72
2023/08/19 08:28:03;;;;;;;27.23;24.52;;;;;;;;;;5010860;28;20050;-72
2023/08/19 08:30:29;;;;;;;30.70;25.65;;;;;;;;;;5030848;28;20105;-72
2023/08/19 08:32:55;;;;;;;34.88;24.58;;;;;;;;;;5028782;28;20053;-72
2023/08/19 08:35:21;;;;;;;27.80;25.13;;;;;;;;;;4993841;28;20042;-72
2023/08/19 08:37:47;;;;;;;26.90;23.38;;;;;;;;;;5011000;28;20049;-72
2023/08/19 08:40:13;;;;;;;27.63;24.63;;;;;;;;;;5019357;28;20650;-72
2023/08/19 08:42:40;;;;;;;27.50;24.67;;;;;;;;;;5030299;28;20080;-73
2023/08/19 08:45:06;;;;;;;31.10;24.55;;;;;;;;;;5028442;28;20465;-72
2023/08/19 08:47:34;;;;;;;27.98;24.92;;;;;;;;;;5012391;28;20046;-72
2023/08/19 08:50:00;;;;;;;27.70;24.80;;;;;;;;;;5030640;28;20500;-72
2023/08/19 08:52:26;;;;;;;27.10;24.10;;;;;;;;;;5013326;28;20431;-72
2023/08/19 08:54:52;;;;;;;26.25;23.25;;;;;;;;;;5012816;28;20401;-72
2023/08/19 08:57:19;;;;;;;25.92;23.20;;;;;;;;;;5010788;28;20125;-72
2023/08/19 08:59:45;;;;;;;25.98;23.27;;;;;;;;;;5010487;28;20493;-72
2023/08/19 09:02:12;;;;;;;26.17;22.75;;;;;;;;;;5011585;28;20045;-71
2023/08/19 09:04:39;;;;;;;30.55;23.05;;;;;;;;;;5023504;28;20070;-72
2023/08/19 09:07:09;;;;;;;26.40;23.60;;;;;;;;;;5010045;28;20413;-72
2023/08/19 09:09:37;;;;;;;26.10;22.35;;;;;;;;;;5009740;28;20489;-72
2023/08/19 09:12:04;;;;;;;26.70;24.05;;;;;;;;;;5008210;28;20063;-72
2023/08/19 09:14:43;;;;;;;33.10;27.75;;;;;;;;;;5012694;28;20042;-72
2023/08/19 09:17:13;;;;;;;23.80;21.35;;;;;;;;;;5028198;28;20053;-72
2023/08/19 09:19:39;;;;;;;24.38;21.98;;;;;;;;;;5001914;28;20054;-72
2023/08/19 09:22:25;;;;;;;24.27;21.77;;;;;;;;;;4992758;28;20046;-72
2023/08/19 09:24:54;;;;;;;23.45;20.98;;;;;;;;;;5010212;28;20417;-72
2023/08/19 09:27:27;;;;;;;23.63;21.20;;;;;;;;;;5010210;28;20054;-72
2023/08/19 09:29:53;;;;;;;24.77;22.17;;;;;;;;;;5003305;28;20512;-71
2023/08/19 09:32:33;;;;;;;24.52;21.92;;;;;;;;;;5027107;28;20493;-72
2023/08/19 09:35:06;;;;;;;25.40;22.92;;;;;;;;;;5028751;28;20124;-72
2023/08/19 09:37:35;;;;;;;25.60;22.92;;;;;;;;;;5009233;28;20046;-72
2023/08/19 09:40:03;;;;;;;26.60;23.75;;;;;;;;;;5011139;28;20396;-72
2023/08/19 09:42:29;;;;;;;27.13;23.48;;;;;;;;;;5012151;28;20128;-71
2023/08/19 09:44:55;;;;;;;26.65;24.08;;;;;;;;;;5028877;28;20508;-72
2023/08/19 09:47:22;;;;;;;25.95;23.40;;;;;;;;;;5029922;28;20049;-72
2023/08/19 09:49:52;;;;;;;26.50;22.38;;;;;;;;;;5027405;28;21132;-71
2023/08/19 09:52:18;;;;;;;24.42;21.90;;;;;;;;;;5028753;28;20071;-72
2023/08/19 09:54:54;;;;;;;25.38;22.17;;;;;;;;;;5017278;28;20095;-72
2023/08/19 09:57:32;;;;;;;24.05;21.55;;;;;;;;;;5009195;28;20056;-72
2023/08/19 09:59:58;;;;;;;23.40;21.15;;;;;;;;;;5009672;28;20443;-71
2023/08/19 10:02:24;;;;;;;24.02;21.58;;;;;;;;;;5009798;28;20486;-72
2023/08/19 10:04:50;;;;;;;26.45;23.67;;;;;;;;;;5005429;28;20081;-71
2023/08/19 10:07:17;;;;;;;25.50;22.77;;;;;;;;;;5025122;28;20058;-72
2023/08/19 10:09:43;;;;;;;28.45;25.55;;;;;;;;;;5029583;28;20080;-71
2023/08/19 10:12:11;;;;;;;27.98;25.00;;;;;;;;;;5026299;28;20057;-72
2023/08/19 10:14:39;;;;;;;29.58;26.40;;;;;;;;;;5009466;28;20545;-71
2023/08/19 10:17:06;;;;;;;28.92;25.45;;;;;;;;;;5009504;28;20053;-71
2023/08/19 10:19:44;;;;;;;32.80;29.27;;;;;;;;;;5009255;28;20050;-71
2023/08/19 10:22:11;;;;;;;41.83;36.47;;;;;;;;;;5020680;28;20049;-71
2023/08/19 10:24:37;;;;;;;34.92;31.13;;;;;;;;;;5005302;28;20054;-72
2023/08/19 10:27:03;;;;;;;37.63;33.63;;;;;;;;;;4991450;28;20057;-72
2023/08/19 10:29:30;;;;;;;42.63;36.65;;;;;;;;;;5009477;28;20504;-71
2023/08/19 10:31:55;;;;;;;42.85;35.88;;;;;;;;;;5009650;28;20038;-72
2023/08/19 10:34:25;;;;;;;47.28;37.95;;;;;;;;;;4995115;28;20133;-72
2023/08/19 10:37:07;;;;;;;48.65;41.03;;;;;;;;;;5028652;28;20046;-71
2023/08/19 10:39:33;;;;;;;54.95;43.85;;;;;;;;;;5009881;28;20053;-72
2023/08/19 10:41:59;;;;;;;53.33;42.25;;;;;;;;;;5016360;28;20046;-72
2023/08/19 10:44:27;;;;;;;49.65;40.72;;;;;;;;;;5009612;28;20098;-72
2023/08/19 10:47:07;;;;;;;51.72;42.22;;;;;;;;;;5010418;28;20053;-72
2023/08/19 10:49:34;;;;;;;52.20;40.88;;;;;;;;;;5028989;28;20049;-72
2023/08/19 10:52:02;;;;;;;46.78;38.53;;;;;;;;;;5010126;28;20056;-72
2023/08/19 10:54:31;;;;;;;45.28;37.35;;;;;;;;;;5010597;28;20065;-72
2023/08/19 10:57:23;;;;;;;46.05;36.75;;;;;;;;;;5027928;28;20045;-71
2023/08/19 11:00:05;;;;;;;39.97;33.40;;;;;;;;;;5007434;28;20125;-71
2023/08/19 11:02:31;;;;;;;38.65;31.33;;;;;;;;;;4990894;28;20049;-72
2023/08/19 11:04:58;;;;;;;39.58;32.08;;;;;;;;;;4990217;28;20042;-72
2023/08/19 11:07:25;;;;;;;35.72;28.42;;;;;;;;;;5009006;28;20137;-71
2023/08/19 11:09:54;;;;;;;33.08;25.55;;;;;;;;;;5007606;28;20058;-72
2023/08/19 11:12:21;;;;;;;30.77;21.92;;;;;;;;;;5001960;28;20049;-72
2023/08/19 11:14:47;;;;;;;28.10;22.38;;;;;;;;;;5001249;28;20179;-72
2023/08/19 11:17:14;;;;;;;23.38;20.00;;;;;;;;;;5008692;28;20405;-72
2023/08/19 11:19:40;;;;;;;22.02;18.80;;;;;;;;;;4990852;28;20525;-72
2023/08/19 11:22:06;;;;;;;22.83;18.40;;;;;;;;;;4990608;28;20477;-71
2023/08/19 11:24:33;;;;;;;21.77;16.27;;;;;;;;;;4999549;28;20481;-71
2023/08/19 11:27:00;;;;;;;20.77;16.95;;;;;;;;;;5027649;28;20106;-71
2023/08/19 11:29:26;;;;;;;22.95;17.27;;;;;;;;;;5007882;28;20049;-71
2023/08/19 11:31:52;;;;;;;20.48;16.33;;;;;;;;;;5010860;28;20100;-72
2023/08/19 11:34:18;;;;;;;21.13;15.77;;;;;;;;;;5011808;28;20046;-72
2023/08/19 11:36:45;;;;;;;20.20;14.05;;;;;;;;;;5031025;28;20063;-72
2023/08/19 11:39:11;;;;;;;13.93;11.00;;;;;;;;;;5031954;28;20422;-72
2023/08/19 11:41:37;;;;;;;11.93;9.25;;;;;;;;;;5024638;28;20133;-72
2023/08/19 11:44:04;;;;;;;13.82;8.82;;;;;;;;;;5021688;28;20438;-72
2023/08/19 11:46:31;;;;;;;11.82;8.77;;;;;;;;;;5013791;28;20489;-72
2023/08/19 11:48:58;;;;;;;11.93;8.88;;;;;;;;;;5029869;28;20489;-72
2023/08/19 11:51:24;;;;;;;15.35;8.85;;;;;;;;;;5010937;28;20103;-71
2023/08/19 11:53:53;;;;;;;11.52;8.85;;;;;;;;;;5011606;28;20054;-72
2023/08/19 11:56:20;;;;;;;11.48;7.88;;;;;;;;;;5011135;28;20053;-71
2023/08/19 11:58:51;;;;;;;14.02;8.65;;;;;;;;;;5028096;28;20050;-72
2023/08/19 12:01:18;;;;;;;12.75;8.10;;;;;;;;;;5029147;28;20070;-72
2023/08/19 12:03:47;;;;;;;12.75;7.32;;;;;;;;;;5028282;28;20045;-71
2023/08/19 12:06:14;;;;;;;10.52;7.00;;;;;;;;;;5029338;28;20057;-71
2023/08/19 12:08:41;;;;;;;9.38;6.35;;;;;;;;;;5030455;28;20056;-72
2023/08/19 12:11:08;;;;;;;11.55;6.25;;;;;;;;;;5005435;28;20096;-72
2023/08/19 12:13:34;;;;;;;11.38;6.03;;;;;;;;;;5010304;28;20041;-72
2023/08/19 12:16:00;;;;;;;7.65;5.07;;;;;;;;;;5011026;28;20465;-71
2023/08/19 12:18:26;;;;;;;6.80;4.28;;;;;;;;;;5008278;28;20053;-71
2023/08/19 12:20:53;;;;;;;7.70;3.85;;;;;;;;;;5030761;28;20045;-72
2023/08/19 12:23:19;;;;;;;8.75;3.85;;;;;;;;;;5030993;28;20053;-71
2023/08/19 12:25:55;;;;;;;9.23;4.10;;;;;;;;;;5029230;28;20045;-72
2023/08/19 12:28:22;;;;;;;6.25;3.20;;;;;;;;;;5031001;28;20055;-71
2023/08/19 12:30:49;;;;;;;5.30;3.47;;;;;;;;;;5029927;28;20098;-72
2023/08/19 12:33:15;;;;;;;8.95;3.38;;;;;;;;;;5011460;28;20046;-72
2023/08/19 12:35:42;;;;;;;4.63;2.92;;;;;;;;;;5030977;28;20045;-72
2023/08/19 12:38:08;;;;;;;8.88;3.72;;;;;;;;;;5030918;28;20045;-72
2023/08/19 12:40:35;;;;;;;7.32;3.85;;;;;;;;;;5001073;28;20042;-72
2023/08/19 12:43:01;;;;;;;8.82;4.55;;;;;;;;;;4993323;28;20132;-72
2023/08/19 12:45:27;;;;;;;8.50;4.63;;;;;;;;;;5010721;28;20471;-71
2023/08/19 12:47:53;;;;;;;10.20;4.63;;;;;;;;;;5011967;28;20430;-72
2023/08/19 12:50:21;;;;;;;7.00;4.57;;;;;;;;;;5029996;28;20081;-71
2023/08/19 12:52:48;;;;;;;9.02;4.90;;;;;;;;;;5030615;28;20057;-71
2023/08/19 12:55:15;;;;;;;10.48;4.80;;;;;;;;;;5030092;28;20481;-71
2023/08/19 12:57:44;;;;;;;12.38;5.45;;;;;;;;;;5006313;28;20486;-71
2023/08/19 13:00:12;;;;;;;9.73;5.30;;;;;;;;;;5010318;28;20056;-72
2023/08/19 13:02:38;;;;;;;10.70;5.22;;;;;;;;;;5010497;28;20053;-72
2023/08/19 13:05:04;;;;;;;8.88;5.15;;;;;;;;;;5009821;28;20095;-72
2023/08/19 13:07:31;;;;;;;8.50;4.82;;;;;;;;;;5024945;28;20380;-72
2023/08/19 13:09:59;;;;;;;7.10;4.50;;;;;;;;;;5015976;28;20046;-72
2023/08/19 13:12:26;;;;;;;11.32;4.85;;;;;;;;;;4999140;28;20062;-71
2023/08/19 13:14:52;;;;;;;10.15;5.00;;;;;;;;;;5011595;28;20041;-72
2023/08/19 13:17:18;;;;;;;8.38;5.05;;;;;;;;;;5012578;28;20077;-72
2023/08/19 13:19:44;;;;;;;10.95;5.25;;;;;;;;;;5029769;28;20116;-71
2023/08/19 13:22:10;;;;;;;11.73;5.22;;;;;;;;;;4997665;28;20146;-72
2023/08/19 13:24:36;;;;;;;9.77;5.43;;;;;;;;;;5026910;28;20077;-72
2023/08/19 13:27:03;;;;;;;10.70;5.60;;;;;;;;;;5011386;28;20085;-72
2023/08/19 13:29:29;;;;;;;11.80;6.32;;;;;;;;;;4992226;28;20050;-71
2023/08/19 13:31:55;;;;;;;10.73;6.15;;;;;;;;;;4992436;28;20050;-71
2023/08/19 13:34:21;;;;;;;10.18;5.88;;;;;;;;;;5016150;28;20507;-71
2023/08/19 13:36:47;;;;;;;10.85;6.80;;;;;;;;;;5028754;28;20485;-72
2023/08/19 13:39:14;;;;;;;11.13;6.35;;;;;;;;;;5029430;28;20049;-71
2023/08/19 13:41:40;;;;;;;13.23;7.50;;;;;;;;;;5001571;28;20062;-72
2023/08/19 13:44:06;;;;;;;13.95;6.95;;;;;;;;;;5009052;28;20054;-72
2023/08/19 13:46:32;;;;;;;15.68;7.93;;;;;;;;;;4992794;28;20443;-72
2023/08/19 13:48:58;;;;;;;11.25;7.15;;;;;;;;;;5010153;28;20451;-71
2023/08/19 13:51:24;;;;;;;15.50;8.13;;;;;;;;;;5021597;28;20045;-72
2023/08/19 13:53:50;;;;;;;15.88;9.73;;;;;;;;;;5008947;28;20556;-71
2023/08/19 13:56:16;;;;;;;10.60;7.65;;;;;;;;;;5028305;28;20045;-71
2023/08/19 13:58:42;;;;;;;12.85;8.00;;;;;;;;;;5005215;28;20137;-72
2023/08/19 14:01:10;;;;;;;12.90;7.70;;;;;;;;;;5010392;28;20069;-72
2023/08/19 14:03:36;;;;;;;12.23;7.57;;;;;;;;;;5009091;28;20128;-72
2023/08/19 14:06:03;;;;;;;12.07;7.72;;;;;;;;;;4991807;28;20081;-71
2023/08/19 14:08:30;;;;;;;17.75;8.20;;;;;;;;;;5019288;28;20118;-71
2023/08/19 14:10:55;;;;;;;16.38;8.88;;;;;;;;;;5028554;28;20049;-71
2023/08/19 14:13:23;;;;;;;13.20;7.97;;;;;;;;;;5009688;28;20453;-71
2023/08/19 14:15:49;;;;;;;9.32;6.78;;;;;;;;;;5011668;28;20412;-71
2023/08/19 14:18:15;;;;;;;12.20;6.50;;;;;;;;;;5028365;28;20532;-71
2023/08/19 14:20:41;;;;;;;14.88;6.22;;;;;;;;;;5027722;28;20170;-71